Oracle, Arizona
Current Conditions -  °F | °C
As of 4:55 AM on Monday 24 Nov 2014 (Local Time) from KAVQ Reporting Station
Clear Clear  
Wind Chill: 27°   Ceiling: Unl
Heat Index: 34°   Visibility: 10mi
Dew Point:   Wind: 8mph
Humidity: 35%   Direction: 220°SW
Pressure: 30.15"   Gusts: NA
Location:  32.61°N, 110.77°W
Report Text: KAVQ 241155Z AUTO 22007KT 10SM CLR 01/M13 A3015 RMK AO2 T00121129
Loading
Personal Weather Stations






























Interactive Weather Map New forecast layout! Learn more

10-Day Weather Forecast

Advertisements
Track Severe Weather on mobile